Pine Apple, Alabama
Current Conditions -  °F | °C
As of 8:56 PM on Friday 21 Nov 2014 (Local Time) from KPRN Reporting Station
Clear Clear  
Wind Chill: 51°   Ceiling: Unl
Heat Index: 51°   Visibility: 10mi
Dew Point: 41°   Wind: 3mph
Humidity: 68%   Direction: 90°E
Pressure: 30.34"   Gusts: NA
Location:  31.87°N, 86.99°W
Report Text: KPRN 220256Z AUTO 09003KT 10SM CLR 11/05 A3034 RMK AO2 SLP272 T01060050 50004
Loading
Personal Weather Stations






























Interactive Weather Map New forecast layout! Learn more

10-Day Weather Forecast

Advertisements
Track Severe Weather on mobile